ポートルイス の空港の天気 - METARとTAF

サー・シウサガル・ラングラーム国際空港 ( FIMP / MRU ) - モーリシャス ポートルイス
飛行場実況気象(Metar)
観測時間09/30 11:00 MUT (09/30 07:00 UTC)
風向・風速東 7m/s
視程6000m
天気現象周辺でしゅう雨
少しの雲 雲底高度 270m
全天の4割程度の雲 雲底高度 430m
全天の8割程度の雲 雲底高度 1520m
気温26℃
湿度65%
気圧1019hPa
METARFIMP 300700Z 09014KT 6000 VCSH FEW009 SCT014 BKN050 26/19 Q1019
過去の天気等 Google飛行場航空写真 Wunderground天気予報

過去48時間のMETAR

飛行場予報(TAF)
発表時間: 9/30 09:00 MUT (9/30 05:00 UTC)
予報対象時間: 30日10時 MUT ~ 1日16時 MUT
風向・風速東 5m/s
視程10km以上
全天の4割程度の雲 雲底高度 490m
全天の8割程度の雲 雲底高度 1520m
30日10時 MUT ~ 30日19時 MUT に一時的に
視程7000m
天気現象弱いしゅう雨
少しの雲 雲底高度 300m
全天の8割程度の雲 雲底高度 460m
30日22時 MUT ~ 30日24時 MUT に徐々に
風向・風速北北西 1m/s
TAF FIMP 300500Z 3006/0112 08010KT 9999 SCT016 BKN050
TEMPO 3006/3015 7000 -SHRA FEW010 BKN015
BECMG 3018/3020 33002KT